Archer, Florida
Current Conditions -  °F | °C
As of 4:53 PM on Saturday 25 Oct 2014 (Local Time) from KGNV Reporting Station
Clear Clear  
Wind Chill: 25°   Ceiling: Unl
Heat Index: 26°   Visibility: 10mi
Dew Point:   Wind: 6mph
Humidity: 36%   Direction: 340°NNW
Pressure: 29.96"   Gusts: NA
Location:  29.53°N, 82.52°W
Report Text: KGNV 252053Z 34005KT 10SM CLR 25/09 A2996 RMK AO2 SLP145 T02500089 56008
Loading
Personal Weather Stations






























Interactive Weather Map
Tropical Storm Tracking
New forecast layout! Learn more

10-Day Weather Forecast

Advertisements
Track Severe Weather on mobile